For water level readings from Victoria harbour, visit our Tides page.

DISCLAIMER: Although GVHA takes care to produce accurate readings from Ogden Point, the weather information on this site is raw data fed directly from sensors. It does not go through the same quality control processes used by professional weather services, and should not be relied on as a sole source of weather information for Victoria harbour.

In-depth weather values from Victoria Harbour can be found on the Environment Canada website.

Location: Ogden Point Breakwater

Current time: Oct 14, 2019 2:11 AM GMT | Oct 13, 2019 7:11 PM

Last Hour Last 3 Hours Last 6 Hours Last 12 Hours
Time Peak Wind Speed Avg Speed Avg Direction Avg Air Temp Avg Dew Point Avg Humidity
Oct 13, 2019 07:10 PM 4 knots 3.2 knots 260° True 10.6° C / 51.2° F 7.7° C / 45.4° F 82%
Oct 13, 2019 07:00 PM 3.7 knots 3.2 knots 252° True 10.6° C / 51.2° F 7.7° C / 45.4° F 81.9%
Oct 13, 2019 06:50 PM 3.1 knots 2.4 knots 251° True 10.6° C / 51.2° F 7.7° C / 45.4° F 82.4%
Oct 13, 2019 06:40 PM 2.9 knots 2.3 knots 251° True 10.7° C / 51.4° F 7.9° C / 45.8° F 82.7%
Oct 13, 2019 06:30 PM 2.5 knots 1.8 knots 248° True 10.9° C / 51.8° F 8° C / 46° F 82.6%
Oct 13, 2019 06:20 PM 2 knots 1.5 knots 250° True 11.2° C / 52.4° F 8.2° C / 46.4° F 81.7%
Oct 13, 2019 06:10 PM 2.4 knots 2.1 knots 220° True 11.5° C / 53° F 8.3° C / 46.6° F 80.8%
Oct 13, 2019 06:00 PM 2.1 knots 1.5 knots 216° True 12° C / 54° F 8.5° C / 47° F 79.2%
Oct 13, 2019 05:50 PM 1.4 knots 0.6 knots 238° True 12.1° C / 54.2° F 8.7° C / 47.4° F 79.8%
Oct 13, 2019 05:40 PM 1.1 knots 0.8 knots 253° True 12.1° C / 54.2° F 8.8° C / 47.6° F 80.4%
Oct 13, 2019 05:30 PM 1.3 knots 0.4 knots 214° True 11.9° C / 53.8° F 8.9° C / 47.8° F 81.7%
Oct 13, 2019 05:20 PM 3 knots 2 knots 228° True 11.5° C / 53° F 8.9° C / 47.8° F 84.1%
Oct 13, 2019 05:10 PM 2.8 knots 1.9 knots 196° True 11.6° C / 53.2° F 9° C / 48° F 84.2%
Oct 13, 2019 05:00 PM 2.1 knots 1.5 knots 141° True 11.5° C / 53° F 9° C / 48° F 84.4%
Oct 13, 2019 04:50 PM 1.9 knots 1.4 knots 160° True 11.6° C / 53.2° F 9.1° C / 48.2° F 84.7%
Oct 13, 2019 04:40 PM 2.3 knots 1.7 knots 144° True 11.4° C / 52.8° F 9° C / 48° F 85.3%
Oct 13, 2019 04:30 PM 2.9 knots 2 knots 132° True 11.2° C / 52.4° F 9° C / 48° F 85.8%
Oct 13, 2019 04:20 PM 3.1 knots 2.7 knots 135° True 11.2° C / 52.4° F 9° C / 48° F 86.3%
Oct 13, 2019 04:10 PM 3.3 knots 2.7 knots 133° True 11.1° C / 52.2° F 9° C / 48° F 86.8%
Oct 13, 2019 04:00 PM 3.8 knots 3.4 knots 141° True 11° C / 52° F 8.8° C / 47.6° F 86.3%
Oct 13, 2019 03:50 PM 4.4 knots 4 knots 143° True 11° C / 52° F 8.7° C / 47.4° F 86.2%
Oct 13, 2019 03:40 PM 4.2 knots 3.7 knots 148° True 11° C / 52° F 8.8° C / 47.6° F 86.6%
Oct 13, 2019 03:30 PM 4.2 knots 3.8 knots 151° True 11° C / 52° F 8.7° C / 47.4° F 85.8%
Oct 13, 2019 03:20 PM 3.8 knots 3.4 knots 144° True 11° C / 52° F 8.6° C / 47.2° F 85.4%
Oct 13, 2019 03:10 PM 4.8 knots 4 knots 157° True 10.9° C / 51.8° F 8.6° C / 47.2° F 85.9%
Oct 13, 2019 03:00 PM 4.6 knots 4.1 knots 168° True 10.9° C / 51.8° F 8.7° C / 47.4° F 86.2%
Oct 13, 2019 02:50 PM 5.8 knots 5.1 knots 173° True 10.8° C / 51.6° F 8.6° C / 47.2° F 86.2%
Oct 13, 2019 02:40 PM 6 knots 4.9 knots 172° True 10.8° C / 51.6° F 8.5° C / 47° F 85.8%
Oct 13, 2019 02:30 PM 5.6 knots 5 knots 155° True 10.7° C / 51.4° F 8.6° C / 47.2° F 86.5%
Oct 13, 2019 02:20 PM 6.7 knots 5.8 knots 142° True 10.7° C / 51.4° F 8.6° C / 47.2° F 87.1%
Oct 13, 2019 02:10 PM 7.3 knots 6.6 knots 140° True 10.6° C / 51.2° F 8.7° C / 47.4° F 88%
Oct 13, 2019 02:00 PM 7.3 knots 5.7 knots 139° True 10.6° C / 51.2° F 8.7° C / 47.4° F 88.5%
Oct 13, 2019 01:50 PM 6.3 knots 5.4 knots 141° True 10.6° C / 51.2° F 8.8° C / 47.6° F 88.5%
Oct 13, 2019 01:40 PM 6.1 knots 5.5 knots 136° True 10.7° C / 51.4° F 8.7° C / 47.4° F 87%
Oct 13, 2019 01:30 PM 6.1 knots 5.5 knots 130° True 10.8° C / 51.6° F 8.4° C / 46.8° F 85.3%
Oct 13, 2019 01:20 PM 6.1 knots 5.4 knots 123° True 10.8° C / 51.6° F 8.4° C / 46.8° F 85.4%
Oct 13, 2019 01:10 PM 5.7 knots 5.1 knots 121° True 10.8° C / 51.6° F 8.4° C / 46.8° F 84.8%
Oct 13, 2019 01:00 PM 5.9 knots 5.1 knots 125° True 10.8° C / 51.6° F 8.3° C / 46.6° F 84.9%
Oct 13, 2019 12:50 PM 5.6 knots 4.5 knots 126° True 10.7° C / 51.4° F 8.3° C / 46.6° F 85.4%
Oct 13, 2019 12:40 PM 4.5 knots 3.9 knots 129° True 10.6° C / 51.2° F 8.2° C / 46.4° F 85.2%
Oct 13, 2019 12:30 PM 4.1 knots 3.7 knots 133° True 10.5° C / 51° F 8.2° C / 46.4° F 85.6%
Oct 13, 2019 12:20 PM 3.8 knots 3.2 knots 139° True 10.6° C / 51.2° F 8.2° C / 46.4° F 85%
Oct 13, 2019 12:10 PM 3.7 knots 3 knots 147° True 10.6° C / 51.2° F 7.7° C / 45.4° F 82.6%
Oct 13, 2019 12:00 PM 4.1 knots 3.3 knots 161° True 10.4° C / 50.8° F 7.8° C / 45.6° F 83.9%
Oct 13, 2019 11:50 AM 3.8 knots 3.2 knots 171° True 10.2° C / 50.4° F 7.9° C / 45.8° F 85.6%
Oct 13, 2019 11:40 AM 3.3 knots 2.9 knots 156° True 10.3° C / 50.6° F 8.1° C / 46.2° F 86.4%
Oct 13, 2019 11:30 AM 2.7 knots 2.2 knots 152° True 10.6° C / 51.2° F 7.9° C / 45.8° F 83.7%
Oct 13, 2019 11:20 AM 2.4 knots 2.1 knots 146° True 10.9° C / 51.8° F 6.9° C / 43.8° F 76.2%
Oct 13, 2019 11:10 AM 1.8 knots 1.4 knots 151° True 11.1° C / 52.2° F 6.5° C / 43° F 73%
Oct 13, 2019 11:00 AM 2.3 knots 1.7 knots 163° True 11.2° C / 52.4° F 6.4° C / 42.8° F 72.2%
Oct 13, 2019 10:50 AM 2.3 knots 1.4 knots 181° True 11.3° C / 52.6° F 6.2° C / 42.4° F 71%
Oct 13, 2019 10:40 AM 1.5 knots 1.1 knots 205° True 11.2° C / 52.4° F 6.1° C / 42.2° F 70.5%
Oct 13, 2019 10:30 AM 1.5 knots 1.2 knots 235° True 11° C / 52° F 6° C / 42° F 71.3%
Oct 13, 2019 10:20 AM 1.7 knots 1.4 knots 242° True 10.8° C / 51.6° F 6.7° C / 43.4° F 75.8%
Oct 13, 2019 10:10 AM 2.6 knots 1.7 knots 243° True 10.7° C / 51.4° F 7.6° C / 45.2° F 81%
Oct 13, 2019 10:00 AM 2.1 knots 0.7 knots 241° True 11° C / 52° F 8.2° C / 46.4° F 83.1%
Oct 13, 2019 09:50 AM 0 knots 0 knots 0° True 11° C / 52° F 8.4° C / 46.8° F 84%
Oct 13, 2019 09:40 AM 0 knots 0 knots 0° True 10.6° C / 51.2° F 8.4° C / 46.8° F 86.5%
Oct 13, 2019 09:30 AM 0.9 knots 0.2 knots 317° True 9.9° C / 49.8° F 8.1° C / 46.2° F 88.4%
Oct 13, 2019 09:20 AM 3.2 knots 2 knots 335° True 9.5° C / 49° F 7.8° C / 45.6° F 89.3%
Oct 13, 2019 09:10 AM 3.4 knots 3.1 knots 343° True 9.3° C / 48.6° F 7.6° C / 45.2° F 89.1%
Oct 13, 2019 09:00 AM 3.6 knots 3.1 knots 348° True 9° C / 48° F 7.6° C / 45.2° F 91.2%
Oct 13, 2019 08:50 AM 3.7 knots 2.6 knots 7° True 9° C / 48° F 7.7° C / 45.4° F 91.4%
Oct 13, 2019 08:40 AM 3.3 knots 2.6 knots 0° True 8.9° C / 47.8° F 7.6° C / 45.2° F 91.5%
Oct 13, 2019 08:30 AM 3 knots 1.6 knots 8° True 8.8° C / 47.6° F 7.6° C / 45.2° F 92%
Oct 13, 2019 08:20 AM 2.9 knots 2.1 knots 18° True 8.7° C / 47.4° F 7.6° C / 45.2° F 92.4%
Oct 13, 2019 08:10 AM 2.9 knots 2.5 knots 7° True 8.7° C / 47.4° F 7.6° C / 45.2° F 92.4%
Oct 13, 2019 08:00 AM 3.7 knots 2.8 knots 358° True 8.7° C / 47.4° F 7.6° C / 45.2° F 92.7%
Oct 13, 2019 07:50 AM 4.5 knots 3.7 knots 327° True 8.8° C / 47.6° F 7.7° C / 45.4° F 93.3%
Oct 13, 2019 07:40 AM 4.4 knots 3.4 knots 348° True 8.9° C / 47.8° F 7.8° C / 45.6° F 92.7%
Oct 13, 2019 07:30 AM 3 knots 2.1 knots 336° True 8.9° C / 47.8° F 7.7° C / 45.4° F 92.3%
Oct 13, 2019 07:20 AM 2.6 knots 1.9 knots 326° True 8.9° C / 47.8° F 7.7° C / 45.4° F 92.3%